Aviation Digital Data Service (ADDS)

Output produced by METARs form (0720 UTC 26 March 2017)
found at http://aviationweather.gov/adds/metars/
 
KMPV 260520Z 2606/2706 00000KT P6SM SKC 
     FM261600 16006KT P6SM SCT150 
     FM262000 17006KT P6SM VCSH BKN050 OVC100 
     FM270000 16006KT 3SM -RA BR OVC025 
     FM270200 16007KT 4SM -FZRA BR OVC025